Time;durP1;ratioP1;P1;durP2;ratioP2;P2;SDS_P1;SDS_P2;PMS_P1;PMS_P2;Temp;Humidity;BMP_temperature;BMP_pressure;BME280_temperature;BME280_humidity;BME280_pressure;Samples;Min_cycle;Max_cycle;Signal;HPM_P1;HPM_P2
2022/10/23 00:00:02;;;;;;;17.57;8.90;;;13.90;81.30;;;;;;5019993;28;20453;-80
2022/10/23 00:02:31;;;;;;;18.93;9.03;;;14.00;81.30;;;;;;5003346;28;20523;-79
2022/10/23 00:05:00;;;;;;;20.10;9.37;;;14.00;81.30;;;;;;5001170;28;20519;-78
2022/10/23 00:07:28;;;;;;;24.40;9.00;;;13.90;81.10;;;;;;4999187;28;20452;-79
2022/10/23 00:09:57;;;;;;;12.27;7.13;;;13.90;81.10;;;;;;5003059;28;20457;-78
2022/10/23 00:12:26;;;;;;;15.73;6.40;;;13.90;80.90;;;;;;5015438;28;20452;-78
2022/10/23 00:14:55;;;;;;;19.17;10.13;;;13.80;80.90;;;;;;4998801;28;21098;-78
2022/10/23 00:17:23;;;;;;;24.57;12.40;;;13.80;80.90;;;;;;5019683;28;20962;-78
2022/10/23 00:19:50;;;;;;;26.53;12.27;;;13.80;81.10;;;;;;5018279;28;20541;-78
2022/10/23 00:22:20;;;;;;;20.53;9.93;;;13.70;81.10;;;;;;5020621;28;20469;-78
2022/10/23 00:24:48;;;;;;;16.43;7.27;;;13.70;81.10;;;;;;5014968;28;20511;-78
2022/10/23 00:27:16;;;;;;;12.90;6.50;;;13.70;81.20;;;;;;4998450;28;20531;-77
2022/10/23 00:29:44;;;;;;;18.30;8.83;;;13.70;81.20;;;;;;5016921;28;20454;-80
2022/10/23 00:32:12;;;;;;;19.27;9.47;;;13.70;81.20;;;;;;4999091;28;20450;-78
2022/10/23 00:34:41;;;;;;;28.03;13.17;;;13.70;81.10;;;;;;5004969;28;20470;-80
2022/10/23 00:37:09;;;;;;;29.60;16.13;;;13.70;81.10;;;;;;4999303;28;20459;-80
2022/10/23 00:39:38;;;;;;;16.10;7.87;;;13.70;81.10;;;;;;5002078;28;20543;-77
2022/10/23 00:42:06;;;;;;;10.33;5.40;;;13.60;81.10;;;;;;5003101;28;20489;-80
2022/10/23 00:45:09;;;;;;;9.37;5.60;;;13.60;81.00;;;;;;5020123;28;20484;-79
2022/10/23 00:47:37;;;;;;;12.43;5.57;;;13.60;81.00;;;;;;5002371;28;20454;-78
2022/10/23 00:50:06;;;;;;;9.00;4.87;;;13.50;80.90;;;;;;5002899;28;20454;-78
2022/10/23 00:52:39;;;;;;;13.70;5.70;;;13.50;80.90;;;;;;5001642;28;20480;-78
2022/10/23 00:55:10;;;;;;;8.87;4.53;;;13.50;80.90;;;;;;5003787;28;20458;-79
2022/10/23 00:57:42;;;;;;;12.73;5.50;;;13.50;80.80;;;;;;5016171;28;20520;-77
2022/10/23 01:00:16;;;;;;;9.40;4.73;;;13.40;80.80;;;;;;5004081;28;21246;-79
2022/10/23 01:02:44;;;;;;;8.73;5.53;;;13.50;80.80;;;;;;5002357;28;20573;-80
2022/10/23 01:05:13;;;;;;;9.17;5.27;;;13.40;80.80;;;;;;5004473;28;20455;-80
2022/10/23 01:07:50;;;;;;;9.23;5.70;;;13.40;80.70;;;;;;4998389;28;20457;-79
2022/10/23 01:10:27;;;;;;;8.90;5.33;;;13.40;80.70;;;;;;5002255;28;20511;-80
2022/10/23 01:13:02;;;;;;;8.20;4.63;;;13.40;80.70;;;;;;5019103;28;20535;-80
2022/10/23 01:15:36;;;;;;;8.33;4.53;;;13.30;80.60;;;;;;4995876;28;20464;-79
2022/10/23 01:18:12;;;;;;;10.70;5.40;;;13.30;80.60;;;;;;5005847;28;20482;-79
2022/10/23 01:20:50;;;;;;;7.80;4.73;;;13.30;80.70;;;;;;4998709;28;20457;-77
2022/10/23 01:23:39;;;;;;;6.93;4.50;;;13.30;80.70;;;;;;5010518;28;20563;-77
2022/10/23 01:26:47;;;;;;;6.93;4.17;;;13.30;80.80;;;;;;5009017;28;20476;-77
2022/10/23 01:29:22;;;;;;;7.13;4.40;;;13.30;80.80;;;;;;5018022;28;20507;-79
2022/10/23 01:31:55;;;;;;;8.03;4.60;;;13.30;80.80;;;;;;5003832;28;20877;-78
2022/10/23 01:34:30;;;;;;;5.73;3.30;;;13.30;80.80;;;;;;4997724;28;20476;-79
2022/10/23 01:37:01;;;;;;;7.30;4.10;;;13.30;80.90;;;;;;5005466;28;20472;-79
2022/10/23 01:39:35;;;;;;;6.17;4.07;;;13.30;80.90;;;;;;5017339;28;20502;-78
2022/10/23 01:42:08;;;;;;;9.13;3.60;;;13.30;81.00;;;;;;5000165;28;20968;-79
2022/10/23 01:44:41;;;;;;;7.27;4.43;;;13.30;81.00;;;;;;5015425;28;20591;-79
2022/10/23 01:47:12;;;;;;;11.87;5.10;;;13.30;81.10;;;;;;5006420;28;20461;-79
2022/10/23 01:50:01;;;;;;;13.57;7.00;;;13.40;81.10;;;;;;5022570;28;20465;-79
2022/10/23 01:52:30;;;;;;;11.63;6.83;;;13.40;81.10;;;;;;5000207;28;20540;-79
2022/10/23 01:55:00;;;;;;;13.83;7.63;;;13.40;81.20;;;;;;4998414;28;20453;-79
2022/10/23 01:57:32;;;;;;;30.43;16.07;;;13.40;81.20;;;;;;5023664;28;20461;-78
2022/10/23 02:00:06;;;;;;;12.47;7.30;;;13.40;81.10;;;;;;5020083;28;20465;-78
2022/10/23 02:02:52;;;;;;;24.23;13.27;;;13.30;81.20;;;;;;4997742;28;20491;-78
2022/10/23 02:05:26;;;;;;;22.83;10.60;;;13.30;81.20;;;;;;5021384;28;21025;-77
2022/10/23 02:07:55;;;;;;;11.60;6.73;;;13.30;81.10;;;;;;5012493;28;20958;-78
2022/10/23 02:10:29;;;;;;;9.00;5.50;;;13.30;81.20;;;;;;5000944;28;20465;-79
2022/10/23 02:13:02;;;;;;;14.07;6.00;;;13.30;81.30;;;;;;5002609;28;20484;-80
2022/10/23 02:15:36;;;;;;;10.10;5.93;;;13.30;81.20;;;;;;5018499;28;20550;-79
2022/10/23 02:18:12;;;;;;;9.93;4.80;;;13.20;81.20;;;;;;5004542;28;20468;-77
2022/10/23 02:20:44;;;;;;;7.10;4.00;;;13.20;81.20;;;;;;4997935;28;20468;-79
2022/10/23 02:23:22;;;;;;;32.87;18.60;;;13.10;81.20;;;;;;5000938;28;20488;-79
2022/10/23 02:25:54;;;;;;;27.03;15.93;;;13.10;81.30;;;;;;4994956;28;21156;-80
2022/10/23 02:28:26;;;;;;;10.60;5.63;;;13.10;81.40;;;;;;5024135;28;20925;-79
2022/10/23 02:31:02;;;;;;;9.30;4.23;;;13.10;81.40;;;;;;5005999;28;20469;-78
2022/10/23 02:33:32;;;;;;;8.20;4.50;;;13.10;81.30;;;;;;5000191;28;20495;-77
2022/10/23 02:36:00;;;;;;;15.07;9.00;;;13.10;81.30;;;;;;5004165;28;20561;-77
2022/10/23 02:38:39;;;;;;;16.80;9.00;;;13.10;81.30;;;;;;5000347;28;20453;-78
2022/10/23 02:41:19;;;;;;;15.20;6.93;;;13.00;81.20;;;;;;5011871;28;20533;-77
2022/10/23 02:43:55;;;;;;;8.63;4.90;;;13.00;81.20;;;;;;5002000;28;20485;-80
2022/10/23 02:46:30;;;;;;;9.20;4.47;;;13.00;81.10;;;;;;4994724;28;20448;-79
2022/10/23 02:49:10;;;;;;;7.67;4.57;;;13.00;81.10;;;;;;5020758;28;20472;-77
2022/10/23 02:51:50;;;;;;;11.73;6.10;;;13.00;81.10;;;;;;5003299;28;21061;-77
2022/10/23 02:54:40;;;;;;;8.43;4.60;;;13.00;81.20;;;;;;5003760;28;20493;-79
2022/10/23 02:57:17;;;;;;;7.80;3.87;;;12.90;81.10;;;;;;5019361;28;20476;-78
2022/10/23 02:59:52;;;;;;;8.17;4.17;;;12.90;81.00;;;;;;5018853;28;20571;-79
2022/10/23 03:02:25;;;;;;;8.17;4.87;;;12.90;81.00;;;;;;5017899;28;20504;-80
2022/10/23 03:04:58;;;;;;;6.60;3.80;;;12.90;80.90;;;;;;5015730;28;20460;-77
2022/10/23 03:07:27;;;;;;;7.33;4.30;;;12.80;80.90;;;;;;5003488;28;20506;-79
2022/10/23 03:10:03;;;;;;;6.70;4.20;;;12.80;80.80;;;;;;4996509;28;20462;-79
2022/10/23 03:12:32;;;;;;;6.80;4.00;;;12.80;80.80;;;;;;4999167;28;20448;-77
2022/10/23 03:15:00;;;;;;;6.10;3.73;;;12.80;80.80;;;;;;5019702;28;20470;-78
2022/10/23 03:17:29;;;;;;;5.47;3.40;;;12.70;80.80;;;;;;5013964;28;20461;-79
2022/10/23 03:19:59;;;;;;;8.03;3.57;;;12.70;80.80;;;;;;5019578;28;20518;-80
2022/10/23 03:22:27;;;;;;;8.43;3.83;;;12.70;80.80;;;;;;5001268;28;20480;-79
2022/10/23 03:24:56;;;;;;;6.43;3.50;;;12.70;80.80;;;;;;5000351;28;20560;-78
2022/10/23 03:27:24;;;;;;;6.00;4.03;;;12.70;80.80;;;;;;4998576;28;20922;-80
2022/10/23 03:29:54;;;;;;;7.00;3.93;;;12.70;80.80;;;;;;5020003;28;20476;-80
2022/10/23 03:32:22;;;;;;;5.87;3.93;;;12.70;80.80;;;;;;5018636;28;20551;-77
2022/10/23 03:34:52;;;;;;;6.00;3.03;;;12.70;80.80;;;;;;5003098;28;21013;-77
2022/10/23 03:37:22;;;;;;;7.10;2.77;;;12.70;80.80;;;;;;5002787;28;20470;-79
2022/10/23 03:39:50;;;;;;;5.90;3.03;;;12.70;80.90;;;;;;4998676;28;20461;-79
2022/10/23 03:42:18;;;;;;;5.33;3.53;;;12.70;80.90;;;;;;5006091;28;20457;-80
2022/10/23 03:44:46;;;;;;;8.17;4.70;;;12.70;80.90;;;;;;5015782;28;20476;-77
2022/10/23 03:47:14;;;;;;;5.33;3.20;;;12.70;80.90;;;;;;5019442;28;20453;-80
2022/10/23 03:49:42;;;;;;;5.50;3.30;;;12.70;81.00;;;;;;5001852;28;20460;-78
2022/10/23 03:52:12;;;;;;;5.43;2.93;;;12.70;81.00;;;;;;4999754;28;20452;-79
2022/10/23 03:54:40;;;;;;;5.70;2.93;;;12.70;81.00;;;;;;5003828;28;20974;-79
2022/10/23 03:57:08;;;;;;;7.90;3.83;;;12.70;81.00;;;;;;5018479;28;20474;-77
2022/10/23 03:59:36;;;;;;;7.70;3.50;;;12.70;81.00;;;;;;5018847;28;20507;-80
2022/10/23 04:02:06;;;;;;;6.43;3.60;;;12.70;81.00;;;;;;5005073;28;20464;-77
2022/10/23 04:04:34;;;;;;;6.57;3.90;;;12.60;80.80;;;;;;5000740;28;20490;-79
2022/10/23 04:07:02;;;;;;;19.50;4.10;;;12.60;80.90;;;;;;5016646;28;21041;-79
2022/10/23 04:09:31;;;;;;;11.07;3.33;;;12.60;81.00;;;;;;5002901;28;20939;-78
2022/10/23 04:11:59;;;;;;;5.50;3.20;;;12.50;80.80;;;;;;4998705;28;20454;-80
2022/10/23 04:14:28;;;;;;;6.63;3.57;;;12.50;81.00;;;;;;4998804;28;20481;-79
2022/10/23 04:16:56;;;;;;;6.80;3.50;;;12.50;81.20;;;;;;4997779;28;20497;-78
2022/10/23 04:19:24;;;;;;;5.20;3.10;;;12.50;81.30;;;;;;4999849;28;20839;-77
2022/10/23 04:21:55;;;;;;;5.10;2.97;;;12.50;81.30;;;;;;5015459;28;20450;-78
2022/10/23 04:24:24;;;;;;;8.87;4.40;;;12.50;81.30;;;;;;4998934;28;20477;-77
2022/10/23 04:26:53;;;;;;;5.60;3.23;;;12.60;81.30;;;;;;4998389;28;20457;-79
2022/10/23 04:29:23;;;;;;;5.73;3.30;;;12.60;81.40;;;;;;4999541;28;20441;-79
2022/10/23 04:31:51;;;;;;;6.63;3.13;;;12.60;81.40;;;;;;4998913;28;20982;-77
2022/10/23 04:34:19;;;;;;;5.60;3.70;;;12.60;81.40;;;;;;5013121;28;20672;-77
2022/10/23 04:36:47;;;;;;;5.37;2.93;;;12.60;81.40;;;;;;5008337;28;20465;-78
2022/10/23 04:39:15;;;;;;;4.60;2.60;;;12.60;81.40;;;;;;5015665;28;20476;-79
2022/10/23 04:41:43;;;;;;;5.50;3.00;;;12.60;81.40;;;;;;4995238;28;20473;-78
2022/10/23 04:44:13;;;;;;;4.40;2.23;;;12.60;81.40;;;;;;5015642;28;20504;-77
2022/10/23 04:46:41;;;;;;;4.67;2.63;;;12.60;81.40;;;;;;5019309;28;20459;-79
2022/10/23 04:49:10;;;;;;;4.50;2.47;;;12.60;81.40;;;;;;5003329;28;20457;-79
2022/10/23 04:51:40;;;;;;;4.50;2.60;;;12.50;81.40;;;;;;5003054;28;20455;-77
2022/10/23 04:54:38;;;;;;;8.33;2.60;;;12.50;81.40;;;;;;4989387;28;20572;-80
2022/10/23 04:57:21;;;;;;;4.77;2.43;;;12.50;81.40;;;;;;5018595;28;20460;-78
2022/10/23 05:00:01;;;;;;;10.20;2.57;;;12.50;81.40;;;;;;5013260;28;20549;-80
2022/10/23 05:02:35;;;;;;;4.20;2.10;;;12.40;81.30;;;;;;4996633;28;20567;-77
2022/10/23 05:05:05;;;;;;;5.03;1.90;;;12.40;81.40;;;;;;5017659;28;20478;-78
2022/10/23 05:07:33;;;;;;;4.70;1.90;;;12.40;81.40;;;;;;4999153;28;20863;-77
2022/10/23 05:10:21;;;;;;;3.90;1.90;;;12.40;81.40;;;;;;4996242;28;20486;-79
2022/10/23 05:13:01;;;;;;;5.03;2.60;;;12.40;81.40;;;;;;4998751;28;20482;-79
2022/10/23 05:15:30;;;;;;;6.43;2.83;;;12.40;81.40;;;;;;4999823;28;20451;-78
2022/10/23 05:18:02;;;;;;;6.50;2.87;;;12.40;81.30;;;;;;5013472;28;20462;-79
2022/10/23 05:20:34;;;;;;;5.30;2.60;;;12.40;81.30;;;;;;5017542;28;20457;-79
2022/10/23 05:23:06;;;;;;;5.30;2.60;;;12.40;81.30;;;;;;5011131;28;20864;-79
2022/10/23 05:25:36;;;;;;;5.17;2.70;;;12.40;81.30;;;;;;5013045;28;20484;-79
2022/10/23 05:28:13;;;;;;;5.03;2.80;;;12.40;81.30;;;;;;5014767;28;20460;-79
2022/10/23 05:30:43;;;;;;;8.43;3.80;;;12.30;81.20;;;;;;4996754;28;20465;-78
2022/10/23 05:33:12;;;;;;;6.30;3.90;;;12.30;81.10;;;;;;4999503;28;20899;-79
2022/10/23 05:35:44;;;;;;;6.43;3.40;;;12.30;81.10;;;;;;5013345;28;21263;-79
2022/10/23 05:38:15;;;;;;;4.97;2.80;;;12.30;81.10;;;;;;4996507;28;20520;-79
2022/10/23 05:40:44;;;;;;;4.80;2.80;;;12.30;81.10;;;;;;5001984;28;20493;-78
2022/10/23 05:43:18;;;;;;;6.90;2.47;;;12.20;81.10;;;;;;5003513;28;20576;-79
2022/10/23 05:46:07;;;;;;;3.80;1.83;;;12.20;81.10;;;;;;5001059;28;20994;-78
2022/10/23 05:48:49;;;;;;;3.90;1.90;;;12.20;81.10;;;;;;5000966;28;20938;-78
2022/10/23 05:51:20;;;;;;;3.57;1.63;;;12.20;81.10;;;;;;5002760;28;20475;-78
2022/10/23 05:54:09;;;;;;;3.90;1.90;;;12.20;81.10;;;;;;4999911;28;20535;-78
2022/10/23 05:56:56;;;;;;;5.80;2.30;;;12.20;81.10;;;;;;5000082;28;20437;-78
2022/10/23 05:59:33;;;;;;;5.47;2.00;;;12.20;81.20;;;;;;5002627;28;20499;-79
2022/10/23 06:02:15;;;;;;;6.33;2.47;;;12.20;81.00;;;;;;5001524;28;20452;-78
2022/10/23 06:04:51;;;;;;;4.70;2.50;;;12.10;80.80;;;;;;5018329;28;20564;-79
2022/10/23 06:07:39;;;;;;;7.27;2.70;;;12.10;80.70;;;;;;5005294;28;20551;-77
2022/10/23 06:10:10;;;;;;;5.60;3.10;;;12.00;80.90;;;;;;5022018;28;20474;-78
2022/10/23 06:12:42;;;;;;;5.07;2.70;;;12.00;81.10;;;;;;5003966;28;20508;-78
2022/10/23 06:15:15;;;;;;;8.47;3.90;;;12.00;81.10;;;;;;5023540;28;20452;-79
2022/10/23 06:18:00;;;;;;;5.73;3.50;;;12.00;81.10;;;;;;5019542;28;20468;-78
2022/10/23 06:20:30;;;;;;;6.63;3.57;;;12.00;80.90;;;;;;5000730;28;20488;-78
2022/10/23 06:23:06;;;;;;;8.30;4.53;;;12.00;80.90;;;;;;5006110;28;21423;-78
2022/10/23 06:26:12;;;;;;;7.10;4.10;;;12.00;80.90;;;;;;4947985;29;20462;-78
2022/10/23 06:28:53;;;;;;;11.20;4.00;;;12.00;80.90;;;;;;5010365;28;20469;-79
2022/10/23 06:31:25;;;;;;;6.50;4.40;;;12.00;80.90;;;;;;5019025;28;20560;-79
2022/10/23 06:33:56;;;;;;;7.00;4.77;;;12.10;80.90;;;;;;5001183;28;20488;-78
2022/10/23 06:36:24;;;;;;;12.53;7.10;;;12.10;80.80;;;;;;5018029;28;20476;-79
2022/10/23 06:38:58;;;;;;;23.43;12.40;;;12.10;80.80;;;;;;5017934;28;20556;-78
2022/10/23 06:41:46;;;;;;;9.57;6.13;;;12.10;80.70;;;;;;4999976;28;20544;-77
2022/10/23 06:44:34;;;;;;;7.90;3.70;;;12.10;80.80;;;;;;5003063;28;20569;-79
2022/10/23 06:47:11;;;;;;;6.83;3.57;;;12.10;80.80;;;;;;5018455;28;20527;-79
2022/10/23 06:49:59;;;;;;;11.03;3.60;;;12.10;80.80;;;;;;5001233;28;20449;-79
2022/10/23 06:52:30;;;;;;;6.33;3.10;;;12.10;80.80;;;;;;5005627;28;20556;-77
2022/10/23 06:55:17;;;;;;;5.17;3.00;;;12.10;80.80;;;;;;5002302;28;21080;-78
2022/10/23 06:57:46;;;;;;;6.10;3.33;;;12.10;80.80;;;;;;5019113;28;20465;-78
2022/10/23 07:00:14;;;;;;;7.90;4.33;;;12.20;80.80;;;;;;5022942;28;20465;-77
2022/10/23 07:02:50;;;;;;;10.67;4.63;;;12.20;80.70;;;;;;5009471;28;20472;-78
2022/10/23 07:05:20;;;;;;;8.47;5.30;;;12.20;80.80;;;;;;5006115;28;20476;-77
2022/10/23 07:07:48;;;;;;;7.43;4.07;;;12.20;80.80;;;;;;5015565;28;20552;-79
2022/10/23 07:10:26;;;;;;;6.07;3.10;;;12.20;80.80;;;;;;5013611;28;20456;-78
2022/10/23 07:13:02;;;;;;;7.40;3.10;;;12.20;80.80;;;;;;5023956;28;20539;-79
2022/10/23 07:15:41;;;;;;;6.13;2.47;;;12.30;80.80;;;;;;5014088;28;20461;-80
2022/10/23 07:18:15;;;;;;;6.23;2.67;;;12.30;80.90;;;;;;5003392;28;20475;-78
2022/10/23 07:21:07;;;;;;;6.13;2.90;;;12.30;81.00;;;;;;5002631;28;20554;-79
2022/10/23 07:23:36;;;;;;;6.90;3.23;;;12.40;81.00;;;;;;5015943;28;21153;-79
2022/10/23 07:26:08;;;;;;;6.13;3.37;;;12.40;81.00;;;;;;5019621;28;20485;-79
2022/10/23 07:28:36;;;;;;;5.80;3.33;;;12.40;81.00;;;;;;5017466;28;20456;-78
2022/10/23 07:31:05;;;;;;;6.63;3.50;;;12.40;81.00;;;;;;5003099;28;20549;-79
2022/10/23 07:33:55;;;;;;;6.00;3.60;;;12.40;81.10;;;;;;4997988;28;20845;-79
2022/10/23 07:36:25;;;;;;;7.83;4.53;;;12.50;81.10;;;;;;5016124;28;20457;-79
2022/10/23 07:38:53;;;;;;;9.67;5.20;;;12.50;81.20;;;;;;5000180;28;20453;-80
2022/10/23 07:41:22;;;;;;;11.77;7.03;;;12.50;81.30;;;;;;5022112;28;20507;-77
2022/10/23 07:43:50;;;;;;;8.37;4.67;;;12.60;81.30;;;;;;5013942;28;20486;-77
2022/10/23 07:46:17;;;;;;;10.23;5.63;;;12.60;81.30;;;;;;5001747;28;20540;-76
2022/10/23 07:48:45;;;;;;;53.57;34.00;;;12.60;81.40;;;;;;5017448;28;20515;-78
2022/10/23 07:51:16;;;;;;;25.43;15.53;;;12.70;81.40;;;;;;4997670;28;20454;-77
2022/10/23 07:53:48;;;;;;;13.17;7.93;;;12.70;81.40;;;;;;5000438;28;20600;-79
2022/10/23 07:56:45;;;;;;;7.87;5.00;;;12.80;81.50;;;;;;4985077;28;20457;-78
2022/10/23 07:59:14;;;;;;;7.77;4.80;;;12.80;81.50;;;;;;4997358;28;20441;-78
2022/10/23 08:01:48;;;;;;;7.23;4.80;;;12.80;81.60;;;;;;5017891;28;20461;-77
2022/10/23 08:04:21;;;;;;;7.43;5.20;;;12.80;81.60;;;;;;5020750;28;20488;-79
2022/10/23 08:06:56;;;;;;;7.73;5.13;;;12.90;81.70;;;;;;5018293;28;20907;-79
2022/10/23 08:09:27;;;;;;;8.10;5.03;;;12.90;81.70;;;;;;5003813;28;20453;-79
2022/10/23 08:11:55;;;;;;;8.17;5.40;;;13.00;81.80;;;;;;5017630;28;20608;-78
2022/10/23 08:14:26;;;;;;;8.63;5.27;;;13.00;81.80;;;;;;5012529;28;20484;-78
2022/10/23 08:16:55;;;;;;;9.40;6.30;;;13.00;81.90;;;;;;5017821;28;20459;-79
2022/10/23 08:20:01;;;;;;;10.33;6.00;;;13.10;81.90;;;;;;4992807;28;20547;-78
2022/10/23 08:22:37;;;;;;;11.33;6.07;;;13.10;82.00;;;;;;5013916;28;20493;-77
2022/10/23 08:25:07;;;;;;;9.50;6.03;;;13.10;82.10;;;;;;5020156;28;20525;-77
2022/10/23 08:27:36;;;;;;;9.87;6.90;;;13.10;82.30;;;;;;5017398;28;20470;-77
2022/10/23 08:30:05;;;;;;;9.63;6.43;;;13.20;82.30;;;;;;4999460;28;20453;-78
2022/10/23 08:32:33;;;;;;;13.00;6.80;;;13.20;82.40;;;;;;5014714;28;20490;-77
2022/10/23 08:35:03;;;;;;;10.37;6.30;;;13.20;82.40;;;;;;5011626;28;20882;-77
2022/10/23 08:37:32;;;;;;;10.60;7.00;;;13.30;82.40;;;;;;5000526;28;20457;-79
2022/10/23 08:40:01;;;;;;;10.17;6.50;;;13.30;82.40;;;;;;5003133;28;20462;-78
2022/10/23 08:42:57;;;;;;;9.13;5.77;;;13.30;82.60;;;;;;4991066;28;20499;-78
2022/10/23 08:45:32;;;;;;;9.37;5.70;;;13.40;82.60;;;;;;4993133;28;20477;-78
2022/10/23 08:48:16;;;;;;;10.87;6.20;;;13.40;82.60;;;;;;4999026;28;20464;-78
2022/10/23 08:51:10;;;;;;;9.50;6.47;;;13.50;82.80;;;;;;5000471;28;21039;-78
2022/10/23 08:53:48;;;;;;;11.07;7.00;;;13.50;82.70;;;;;;4994916;28;20483;-78
2022/10/23 08:56:25;;;;;;;13.43;6.77;;;13.60;82.80;;;;;;4996883;28;20477;-78
2022/10/23 08:59:00;;;;;;;9.10;6.90;;;13.60;82.90;;;;;;5016742;28;20465;-78
2022/10/23 09:01:37;;;;;;;8.37;5.53;;;13.70;83.00;;;;;;5015232;28;20511;-80
2022/10/23 09:04:06;;;;;;;15.80;7.67;;;13.70;83.10;;;;;;5002914;28;21062;-77
2022/10/23 09:06:39;;;;;;;14.00;8.70;;;13.80;83.10;;;;;;4990543;28;20473;-76
2022/10/23 09:09:24;;;;;;;11.43;8.37;;;13.80;83.20;;;;;;5003494;28;20460;-79
2022/10/23 09:12:00;;;;;;;15.00;8.20;;;13.90;83.20;;;;;;5001906;28;20460;-79
2022/10/23 09:14:57;;;;;;;12.17;8.23;;;13.90;83.30;;;;;;5004156;28;20489;-79
2022/10/23 09:17:26;;;;;;;15.20;9.97;;;13.90;83.40;;;;;;5018221;28;20467;-79
2022/10/23 09:20:01;;;;;;;9.40;7.23;;;13.90;83.60;;;;;;5003757;28;20462;-78
2022/10/23 09:22:29;;;;;;;10.27;6.97;;;14.00;83.90;;;;;;5014412;28;21206;-78
2022/10/23 09:24:57;;;;;;;11.60;7.30;;;14.00;84.50;;;;;;4999557;28;20464;-78
2022/10/23 09:27:25;;;;;;;8.70;7.17;;;14.10;84.20;;;;;;5003599;28;20989;-78
2022/10/23 09:29:57;;;;;;;11.57;7.50;;;14.10;84.40;;;;;;5002146;28;20458;-77
2022/10/23 09:32:36;;;;;;;12.73;7.73;;;14.20;84.50;;;;;;5006533;28;20492;-77
2022/10/23 09:35:05;;;;;;;10.60;6.40;;;14.30;85.10;;;;;;4998720;28;20456;-77
2022/10/23 09:37:34;;;;;;;9.53;6.70;;;14.30;84.80;;;;;;5010496;28;20459;-77
2022/10/23 09:40:18;;;;;;;8.13;5.90;;;14.50;84.90;;;;;;5023980;28;20472;-79
2022/10/23 09:42:58;;;;;;;10.17;4.83;;;14.50;85.00;;;;;;5008953;28;20480;-79
2022/10/23 09:45:31;;;;;;;9.23;5.47;;;14.60;85.10;;;;;;5010679;28;20519;-78
2022/10/23 09:48:14;;;;;;;9.73;4.83;;;14.70;85.20;;;;;;5001205;28;20462;-77
2022/10/23 09:50:52;;;;;;;10.13;5.03;;;14.80;85.20;;;;;;4999928;28;20467;-80
2022/10/23 09:53:27;;;;;;;8.13;4.87;;;14.80;85.20;;;;;;5000024;28;20480;-78
2022/10/23 09:55:58;;;;;;;6.87;4.60;;;14.90;85.20;;;;;;5006592;28;20509;-79
2022/10/23 09:58:32;;;;;;;8.93;4.80;;;15.00;85.20;;;;;;4997148;28;20453;-78
2022/10/23 10:01:02;;;;;;;6.67;4.20;;;15.00;85.20;;;;;;4995354;28;20472;-78
2022/10/23 10:03:49;;;;;;;7.10;4.60;;;15.10;85.20;;;;;;5014699;28;21057;-77
2022/10/23 10:06:23;;;;;;;6.80;4.23;;;15.20;85.20;;;;;;5018767;28;20480;-77
2022/10/23 10:08:55;;;;;;;7.97;4.83;;;15.30;85.30;;;;;;5003724;28;20797;-79
2022/10/23 10:11:30;;;;;;;11.50;4.40;;;15.30;85.20;;;;;;5022998;28;20527;-79
2022/10/23 10:14:32;;;;;;;5.80;3.60;;;15.40;85.10;;;;;;5004273;28;20487;-79
2022/10/23 10:17:05;;;;;;;6.20;3.40;;;15.50;85.10;;;;;;5008540;28;20456;-79
2022/10/23 10:19:48;;;;;;;10.10;4.10;;;15.60;85.10;;;;;;5007916;28;21053;-77
2022/10/23 10:22:28;;;;;;;12.70;4.80;;;15.60;85.10;;;;;;5007585;28;20457;-78
2022/10/23 10:25:05;;;;;;;5.83;3.27;;;15.70;85.10;;;;;;5015713;28;20589;-77
2022/10/23 10:27:45;;;;;;;10.73;4.60;;;15.80;85.10;;;;;;5001839;28;20559;-78
2022/10/23 10:30:18;;;;;;;7.60;4.10;;;15.80;85.10;;;;;;4998709;28;20453;-77
2022/10/23 10:32:53;;;;;;;11.90;4.37;;;15.90;85.00;;;;;;5003586;28;20468;-78
2022/10/23 10:35:32;;;;;;;10.43;3.50;;;16.00;84.90;;;;;;5002978;28;20456;-77
2022/10/23 10:38:24;;;;;;;10.83;4.80;;;16.00;84.90;;;;;;5022467;28;20461;-79
2022/10/23 10:41:10;;;;;;;6.27;3.60;;;16.10;84.90;;;;;;4989917;28;20547;-77
2022/10/23 10:43:47;;;;;;;9.17;4.27;;;16.20;84.80;;;;;;5004182;28;21033;-78
2022/10/23 10:46:23;;;;;;;8.73;4.07;;;16.30;84.80;;;;;;5004153;28;20456;-79
2022/10/23 10:49:01;;;;;;;6.07;3.20;;;16.30;84.80;;;;;;5000902;28;20453;-80
2022/10/23 10:52:04;;;;;;;9.93;4.33;;;16.30;84.70;;;;;;4932353;28;21116;-77
2022/10/23 10:54:45;;;;;;;9.20;4.37;;;16.40;84.70;;;;;;5006921;28;20527;-78
2022/10/23 10:57:21;;;;;;;5.63;3.33;;;16.40;84.70;;;;;;5008658;28;20463;-78
2022/10/23 10:59:53;;;;;;;6.63;3.80;;;16.50;84.60;;;;;;5002457;28;20457;-77
2022/10/23 11:02:27;;;;;;;7.13;3.37;;;16.50;84.60;;;;;;5024002;28;20920;-79
2022/10/23 11:05:05;;;;;;;8.70;4.77;;;16.60;84.60;;;;;;5006011;28;20456;-77
2022/10/23 11:07:39;;;;;;;11.00;3.90;;;16.60;84.60;;;;;;5002621;28;20465;-78
2022/10/23 11:10:16;;;;;;;10.47;4.50;;;16.70;84.60;;;;;;5020314;28;20551;-77
2022/10/23 11:12:45;;;;;;;11.40;5.87;;;16.70;84.60;;;;;;5020706;28;20458;-79
2022/10/23 11:15:15;;;;;;;9.80;4.40;;;16.70;84.50;;;;;;5005195;28;20455;-80
2022/10/23 11:17:47;;;;;;;11.30;4.90;;;16.70;84.50;;;;;;5006050;28;20453;-79
2022/10/23 11:20:52;;;;;;;6.80;4.00;;;16.70;84.50;;;;;;5000805;28;21059;-78
2022/10/23 11:23:47;;;;;;;11.30;5.37;;;16.80;84.50;;;;;;4954131;28;20480;-79
2022/10/23 11:26:33;;;;;;;11.70;5.70;;;16.80;84.50;;;;;;4990582;28;20476;-78
2022/10/23 11:29:34;;;;;;;11.63;5.30;;;16.80;84.50;;;;;;5000652;28;20437;-78
2022/10/23 11:32:21;;;;;;;18.77;8.20;;;16.80;84.50;;;;;;5005078;28;20894;-79
2022/10/23 11:35:10;;;;;;;12.17;5.83;;;16.80;84.60;;;;;;5002213;28;20536;-79
2022/10/23 11:37:39;;;;;;;11.70;4.83;;;16.90;84.60;;;;;;5003109;28;20442;-78
2022/10/23 11:40:21;;;;;;;16.23;4.53;;;16.90;84.60;;;;;;5006606;28;20479;-77
2022/10/23 11:42:50;;;;;;;9.30;4.23;;;17.00;84.50;;;;;;5001892;28;20480;-78
2022/10/23 11:45:30;;;;;;;6.53;3.50;;;17.00;84.50;;;;;;5005546;28;20457;-76
2022/10/23 11:48:01;;;;;;;6.50;2.20;;;17.00;84.50;;;;;;4998454;28;20476;-78
2022/10/23 11:50:34;;;;;;;8.83;4.70;;;17.10;84.50;;;;;;5005442;28;20460;-79
2022/10/23 11:53:09;;;;;;;5.73;3.00;;;17.10;84.50;;;;;;5024377;28;20473;-78
2022/10/23 11:55:58;;;;;;;5.60;2.60;;;17.20;84.50;;;;;;5003438;28;20457;-78
2022/10/23 11:58:30;;;;;;;5.50;2.73;;;17.20;84.40;;;;;;5004793;28;20486;-77
2022/10/23 12:01:05;;;;;;;5.70;2.90;;;17.30;84.40;;;;;;5014703;28;20546;-77
2022/10/23 12:03:42;;;;;;;6.40;2.57;;;17.30;84.30;;;;;;5001917;28;20490;-78
2022/10/23 12:06:20;;;;;;;9.20;2.53;;;17.40;84.30;;;;;;5000863;28;20444;-79
2022/10/23 12:08:54;;;;;;;9.50;3.07;;;17.50;84.30;;;;;;5019857;28;20869;-77
2022/10/23 12:11:41;;;;;;;7.20;3.27;;;17.50;84.40;;;;;;5007333;28;20495;-80
2022/10/23 12:14:29;;;;;;;10.07;3.47;;;17.60;84.40;;;;;;5000298;28;20481;-77
2022/10/23 12:16:57;;;;;;;7.10;3.47;;;17.70;84.30;;;;;;5005551;28;20457;-80
2022/10/23 12:19:27;;;;;;;7.20;3.47;;;17.70;84.20;;;;;;5000166;28;20456;-79
2022/10/23 12:21:59;;;;;;;9.30;3.00;;;17.70;84.20;;;;;;5002832;28;20955;-80
2022/10/23 12:24:39;;;;;;;5.90;3.27;;;17.70;84.20;;;;;;5004600;28;20477;-77
2022/10/23 12:27:21;;;;;;;6.00;3.30;;;17.70;84.30;;;;;;4998510;28;20543;-80
2022/10/23 12:30:14;;;;;;;4.90;3.00;;;17.80;84.30;;;;;;5001640;28;21002;-80
2022/10/23 12:33:06;;;;;;;5.60;3.00;;;17.80;84.20;;;;;;5004185;28;20468;-77
2022/10/23 12:35:53;;;;;;;7.40;3.17;;;17.80;84.20;;;;;;4995543;28;20469;-78
2022/10/23 12:38:26;;;;;;;7.87;2.93;;;17.80;84.20;;;;;;4999684;28;20459;-79
2022/10/23 12:41:10;;;;;;;5.80;3.30;;;17.70;84.20;;;;;;4999235;28;20464;-79
2022/10/23 12:43:40;;;;;;;4.53;2.77;;;17.70;84.20;;;;;;5002234;28;20480;-79
2022/10/23 12:46:25;;;;;;;4.90;2.57;;;17.70;84.20;;;;;;4995876;28;20882;-79
2022/10/23 12:48:56;;;;;;;5.90;3.37;;;17.70;84.30;;;;;;5002562;28;20563;-79
2022/10/23 12:51:26;;;;;;;7.17;3.30;;;17.70;84.30;;;;;;4995709;28;20997;-79
2022/10/23 12:53:55;;;;;;;5.70;2.73;;;17.70;84.30;;;;;;5003699;28;20472;-78
2022/10/23 12:56:25;;;;;;;6.13;3.10;;;17.70;84.40;;;;;;5003882;28;20448;-78
2022/10/23 12:59:00;;;;;;;6.00;3.20;;;17.70;84.50;;;;;;5018797;28;20455;-79
2022/10/23 13:01:30;;;;;;;5.03;2.43;;;17.70;84.60;;;;;;5000052;28;20453;-77
2022/10/23 13:04:07;;;;;;;5.07;2.80;;;17.80;84.60;;;;;;5012055;28;20489;-77
2022/10/23 13:06:35;;;;;;;7.53;3.00;;;17.80;84.60;;;;;;5018973;28;20531;-77
2022/10/23 13:09:06;;;;;;;11.90;3.00;;;17.80;84.60;;;;;;5005496;28;20488;-77
2022/10/23 13:11:57;;;;;;;5.47;3.03;;;17.80;84.70;;;;;;4985086;28;20524;-79
2022/10/23 13:14:35;;;;;;;10.00;3.47;;;17.80;84.70;;;;;;5016196;28;20927;-79
2022/10/23 13:17:10;;;;;;;5.77;3.23;;;17.80;84.80;;;;;;5006372;28;20452;-79
2022/10/23 13:19:38;;;;;;;7.50;3.63;;;17.80;84.90;;;;;;4996622;28;20739;-78
2022/10/23 13:22:20;;;;;;;6.27;2.50;;;17.90;85.00;;;;;;5008546;28;21080;-77